| time (UTC) | temp F | wind direction | speed MPH | gust MPH | rain 1hr in | rain 24hr in | rain mn in | humidity % | barometer mb |
| 20260503223031 | 75 | 332 | 3.0 | 12.0 | 0.00 | 0.00 | 0.00 | 34 | 1017.6 |
| 20260503221547 | 75 | 333 | 3.0 | 12.0 | 0.00 | 0.00 | 0.00 | 32 | 1017.4 |
| 20260503220035 | 76 | 44 | 3.0 | 9.0 | 0.00 | 0.00 | 0.00 | 35 | 1017.6 |
| 20260503214535 | 75 | 312 | 2.0 | 12.0 | 0.00 | 0.00 | 0.00 | 32 | 1017.6 |
| 20260503213035 | 75 | 327 | 3.0 | 16.0 | 0.00 | 0.00 | 0.00 | 34 | 1017.7 |
| 20260503211542 | 75 | 0 | 3.0 | 10.0 | 0.00 | 0.00 | 0.00 | 32 | 1017.9 |
| 20260503210048 | 76 | 333 | 4.0 | 13.0 | 0.00 | 0.00 | 0.00 | 33 | 1018.1 |
| 20260503204542 | 75 | 342 | 3.0 | 14.0 | 0.00 | 0.00 | 0.00 | 36 | 1018.4 |
| 20260503203037 | 76 | 304 | 5.0 | 14.0 | 0.00 | 0.00 | 0.00 | 34 | 1018.6 |
| 20260503201541 | 76 | 76 | 1.0 | 11.0 | 0.00 | 0.00 | 0.00 | 31 | 1018.7 |
| 20260503200045 | 76 | 0 | 3.0 | 12.0 | 0.00 | 0.00 | 0.00 | 32 | 1018.8 |
| 20260503194536 | 75 | 104 | 1.0 | 14.0 | 0.00 | 0.00 | 0.00 | 35 | 1019.2 |
| 20260503193035 | 75 | 325 | 6.0 | 13.0 | 0.00 | 0.00 | 0.00 | 33 | 1019.4 |
| 20260503191535 | 74 | 315 | 4.0 | 14.0 | 0.00 | 0.00 | 0.00 | 32 | 1019.6 |
| 20260503190043 | 75 | 352 | 8.0 | 15.0 | 0.00 | 0.00 | 0.00 | 35 | 1019.9 |
| 20260503184542 | 74 | 346 | 4.0 | 15.0 | 0.00 | 0.00 | 0.00 | 34 | 1020.0 |
| 20260503183037 | 74 | 319 | 7.0 | 14.0 | 0.00 | 0.00 | 0.00 | 31 | 1020.2 |
| 20260503181536 | 74 | 46 | 5.0 | 16.0 | 0.00 | 0.00 | 0.00 | 37 | 1020.2 |
| 20260503180035 | 74 | 82 | 5.0 | 12.0 | 0.00 | 0.00 | 0.00 | 38 | 1020.3 |
| 20260503174534 | 74 | 49 | 8.0 | 15.0 | 0.00 | 0.00 | 0.00 | 32 | 1020.5 |
| 20260503173108 | 73 | 302 | 6.0 | 11.0 | 0.00 | 0.00 | 0.00 | 32 | 1020.5 |
| 20260503171538 | 73 | 5 | 8.0 | 14.0 | 0.00 | 0.00 | 0.00 | 35 | 1020.8 |
| 20260503081550 | 45 | 0 | 0.0 | 0.0 | 0.00 | 0.19 | 0.00 | 90 | 1019.2 |
| 20260503071542 | 46 | 0 | 0.0 | 0.0 | 0.00 | 0.36 | 0.00 | 89 | 1019.0 |
| 20260503054539 | 49 | 0 | 0.0 | 0.0 | 0.00 | 0.50 | 0.00 | 84 | 1018.6 |
| 20260503053036 | 49 | 0 | 0.0 | 2.0 | 0.00 | 0.50 | 0.00 | 83 | 1018.6 |
| 20260503051537 | 49 | 0 | 0.0 | 0.0 | 0.00 | 0.50 | 0.00 | 83 | 1018.5 |
| 20260503050035 | 50 | 0 | 0.0 | 2.0 | 0.00 | 0.50 | 0.00 | 82 | 1018.4 |
| 20260503044542 | 49 | 0 | 0.0 | 1.0 | 0.00 | 0.51 | 0.50 | 83 | 1018.5 |
| 20260503043035 | 50 | 0 | 0.0 | 2.0 | 0.00 | 0.51 | 0.50 | 82 | 1018.5 |
| 20260503041539 | 50 | 0 | 0.0 | 1.0 | 0.00 | 0.51 | 0.50 | 83 | 1018.3 |
| 20260503040037 | 51 | 0 | 0.0 | 1.0 | 0.00 | 0.51 | 0.50 | 84 | 1018.3 |
| 20260503034535 | 51 | 0 | 0.0 | 1.0 | 0.00 | 0.63 | 0.50 | 81 | 1018.1 |
| 20260503033031 | 52 | 0 | 0.0 | 1.0 | 0.00 | 0.63 | 0.50 | 78 | 1018.0 |
| 20260503031547 | 52 | 0 | 0.0 | 3.0 | 0.00 | 0.63 | 0.50 | 77 | 1017.8 |
| 20260503030035 | 52 | 0 | 0.0 | 2.0 | 0.00 | 0.63 | 0.50 | 76 | 1017.7 |
| 20260503024536 | 53 | 0 | 0.0 | 0.0 | 0.00 | 0.83 | 0.50 | 79 | 1017.6 |
| 20260503023038 | 54 | 0 | 0.0 | 0.0 | 0.00 | 0.83 | 0.50 | 77 | 1017.5 |
| 20260503021540 | 55 | 0 | 0.0 | 2.0 | 0.00 | 0.83 | 0.50 | 74 | 1017.0 |
| 20260503020041 | 55 | 0 | 0.0 | 1.0 | 0.00 | 0.83 | 0.50 | 72 | 1016.7 |
| 20260503014536 | 57 | 0 | 0.0 | 0.0 | 0.00 | 0.98 | 0.50 | 67 | 1016.7 |
| 20260503013039 | 57 | 0 | 0.0 | 2.0 | 0.00 | 0.98 | 0.50 | 66 | 1016.6 |
| 20260503011534 | 57 | 0 | 0.0 | 1.0 | 0.00 | 0.98 | 0.50 | 68 | 1016.5 |
| 20260503010041 | 59 | 0 | 1.0 | 5.0 | 0.00 | 0.98 | 0.50 | 67 | 1016.3 |
| 20260503004536 | 61 | 0 | 0.0 | 4.0 | 0.00 | 1.04 | 0.50 | 61 | 1016.0 |
| 20260503003036 | 63 | 24 | 0.0 | 6.0 | 0.00 | 1.04 | 0.50 | 53 | 1015.6 |
| 20260503001543 | 65 | 0 | 2.0 | 7.0 | 0.00 | 1.04 | 0.50 | 48 | 1015.4 |
| 20260503000057 | 67 | 5 | 2.0 | 11.0 | 0.00 | 1.04 | 0.50 | 45 | 1015.1 |
| 20260502234535 | 68 | 26 | 7.0 | 14.0 | 0.00 | 1.15 | 0.50 | 42 | 1015.1 |
| 20260502233035 | 69 | 31 | 5.0 | 17.0 | 0.00 | 1.15 | 0.50 | 42 | 1014.6 |
| 20260502231537 | 70 | 45 | 6.0 | 14.0 | 0.00 | 1.15 | 0.50 | 39 | 1014.7 |
| 20260502230035 | 70 | 350 | 10.0 | 18.0 | 0.00 | 1.15 | 0.50 | 37 | 1014.6 |
| 20260502224540 | 70 | 17 | 7.0 | 19.0 | 0.00 | 1.24 | 0.50 | 36 | 1014.5 |